sensor_id;sensor_type;location;lat;lon;timestamp;temperature;humidity
53410;DHT22;66590;50.734;4.246;2023-04-03T00:00:55;3.20;99.90
53410;DHT22;66590;50.734;4.246;2023-04-03T00:03:23;3.20;99.90
53410;DHT22;66590;50.734;4.246;2023-04-03T00:05:50;3.20;99.90
53410;DHT22;66590;50.734;4.246;2023-04-03T00:08:19;3.30;99.90
53410;DHT22;66590;50.734;4.246;2023-04-03T00:10:46;3.40;99.90
53410;DHT22;66590;50.734;4.246;2023-04-03T00:13:13;3.40;99.90
53410;DHT22;66590;50.734;4.246;2023-04-03T00:15:40;3.50;99.90
53410;DHT22;66590;50.734;4.246;2023-04-03T00:18:08;3.60;99.90
53410;DHT22;66590;50.734;4.246;2023-04-03T00:20:35;3.70;99.90
53410;DHT22;66590;50.734;4.246;2023-04-03T00:23:03;3.70;99.90
53410;DHT22;66590;50.734;4.246;2023-04-03T00:25:31;3.70;99.90
53410;DHT22;66590;50.734;4.246;2023-04-03T00:27:58;3.80;99.90
53410;DHT22;66590;50.734;4.246;2023-04-03T00:30:25;3.80;99.90
53410;DHT22;66590;50.734;4.246;2023-04-03T00:32:52;3.80;99.90
53410;DHT22;66590;50.734;4.246;2023-04-03T00:35:20;3.80;99.90
53410;DHT22;66590;50.734;4.246;2023-04-03T00:37:50;3.80;99.90
53410;DHT22;66590;50.734;4.246;2023-04-03T00:40:17;3.80;99.90
53410;DHT22;66590;50.734;4.246;2023-04-03T00:42:48;3.80;99.90
53410;DHT22;66590;50.734;4.246;2023-04-03T00:45:33;3.70;99.90
53410;DHT22;66590;50.734;4.246;2023-04-03T00:48:01;3.80;99.90
53410;DHT22;66590;50.734;4.246;2023-04-03T00:50:29;3.70;99.90
53410;DHT22;66590;50.734;4.246;2023-04-03T00:52:57;3.70;99.90
53410;DHT22;66590;50.734;4.246;2023-04-03T00:55:25;3.70;99.90
53410;DHT22;66590;50.734;4.246;2023-04-03T00:57:55;3.70;99.90
53410;DHT22;66590;50.734;4.246;2023-04-03T01:00:23;3.80;99.90
53410;DHT22;66590;50.734;4.246;2023-04-03T01:02:51;3.80;99.90
53410;DHT22;66590;50.734;4.246;2023-04-03T01:05:19;3.80;99.90
53410;DHT22;66590;50.734;4.246;2023-04-03T01:07:48;3.80;99.90
53410;DHT22;66590;50.734;4.246;2023-04-03T01:10:17;3.80;99.90
53410;DHT22;66590;50.734;4.246;2023-04-03T01:12:46;3.80;99.90
53410;DHT22;66590;50.734;4.246;2023-04-03T01:15:17;3.80;99.90
53410;DHT22;66590;50.734;4.246;2023-04-03T01:17:47;3.80;99.90
53410;DHT22;66590;50.734;4.246;2023-04-03T01:23:36;3.90;99.90
53410;DHT22;66590;50.734;4.246;2023-04-03T01:26:08;3.90;99.90
53410;DHT22;66590;50.734;4.246;2023-04-03T01:28:36;3.90;99.90
53410;DHT22;66590;50.734;4.246;2023-04-03T01:31:13;3.80;99.90
53410;DHT22;66590;50.734;4.246;2023-04-03T01:33:43;3.80;99.90
53410;DHT22;66590;50.734;4.246;2023-04-03T01:36:15;3.70;99.90
53410;DHT22;66590;50.734;4.246;2023-04-03T01:38:43;3.60;99.90
53410;DHT22;66590;50.734;4.246;2023-04-03T01:41:10;3.60;99.90
53410;DHT22;66590;50.734;4.246;2023-04-03T01:43:37;3.60;99.90
53410;DHT22;66590;50.734;4.246;2023-04-03T01:46:04;3.70;99.90
53410;DHT22;66590;50.734;4.246;2023-04-03T01:48:31;3.60;99.90
53410;DHT22;66590;50.734;4.246;2023-04-03T01:51:00;3.60;99.90
53410;DHT22;66590;50.734;4.246;2023-04-03T01:53:26;3.60;99.90
53410;DHT22;66590;50.734;4.246;2023-04-03T01:55:53;3.60;99.90
53410;DHT22;66590;50.734;4.246;2023-04-03T01:58:20;3.60;99.90
53410;DHT22;66590;50.734;4.246;2023-04-03T02:00:47;3.60;99.90
53410;DHT22;66590;50.734;4.246;2023-04-03T02:03:15;3.60;99.90
53410;DHT22;66590;50.734;4.246;2023-04-03T02:05:42;3.60;99.90
53410;DHT22;66590;50.734;4.246;2023-04-03T02:08:10;3.50;99.90
53410;DHT22;66590;50.734;4.246;2023-04-03T02:10:37;3.50;99.90
53410;DHT22;66590;50.734;4.246;2023-04-03T02:13:04;3.40;99.90
53410;DHT22;66590;50.734;4.246;2023-04-03T02:15:31;3.50;99.90
53410;DHT22;66590;50.734;4.246;2023-04-03T02:17:58;3.50;99.90
53410;DHT22;66590;50.734;4.246;2023-04-03T02:20:26;3.40;99.90
53410;DHT22;66590;50.734;4.246;2023-04-03T02:22:53;3.40;99.90
53410;DHT22;66590;50.734;4.246;2023-04-03T02:25:21;3.40;99.90
53410;DHT22;66590;50.734;4.246;2023-04-03T02:27:48;3.30;99.90
53410;DHT22;66590;50.734;4.246;2023-04-03T02:30:15;3.30;99.90
53410;DHT22;66590;50.734;4.246;2023-04-03T02:32:43;3.30;99.90
53410;DHT22;66590;50.734;4.246;2023-04-03T02:35:10;3.40;99.90
53410;DHT22;66590;50.734;4.246;2023-04-03T02:37:38;3.40;99.90
53410;DHT22;66590;50.734;4.246;2023-04-03T02:40:06;3.40;99.90
53410;DHT22;66590;50.734;4.246;2023-04-03T02:42:35;3.30;99.90
53410;DHT22;66590;50.734;4.246;2023-04-03T02:45:02;3.20;99.90
53410;DHT22;66590;50.734;4.246;2023-04-03T02:47:29;3.20;99.90
53410;DHT22;66590;50.734;4.246;2023-04-03T02:49:56;3.30;99.90
53410;DHT22;66590;50.734;4.246;2023-04-03T02:52:23;3.30;99.90
53410;DHT22;66590;50.734;4.246;2023-04-03T02:54:50;3.30;99.90
53410;DHT22;66590;50.734;4.246;2023-04-03T02:57:17;3.30;99.90
53410;DHT22;66590;50.734;4.246;2023-04-03T02:59:45;3.20;99.90
53410;DHT22;66590;50.734;4.246;2023-04-03T03:02:12;3.20;99.90
53410;DHT22;66590;50.734;4.246;2023-04-03T03:04:39;3.20;99.90
53410;DHT22;66590;50.734;4.246;2023-04-03T03:07:06;3.20;99.90
53410;DHT22;66590;50.734;4.246;2023-04-03T03:09:33;3.20;99.90
53410;DHT22;66590;50.734;4.246;2023-04-03T03:12:00;3.10;99.90
53410;DHT22;66590;50.734;4.246;2023-04-03T03:14:28;3.10;99.90
53410;DHT22;66590;50.734;4.246;2023-04-03T03:16:56;3.10;99.90
53410;DHT22;66590;50.734;4.246;2023-04-03T03:19:23;3.10;99.90
53410;DHT22;66590;50.734;4.246;2023-04-03T03:21:50;3.10;99.90
53410;DHT22;66590;50.734;4.246;2023-04-03T03:24:17;3.10;99.90
53410;DHT22;66590;50.734;4.246;2023-04-03T03:26:44;3.10;99.90
53410;DHT22;66590;50.734;4.246;2023-04-03T03:29:11;3.10;99.90
53410;DHT22;66590;50.734;4.246;2023-04-03T03:31:38;2.90;99.90
53410;DHT22;66590;50.734;4.246;2023-04-03T03:34:06;3.00;99.90
53410;DHT22;66590;50.734;4.246;2023-04-03T03:36:33;3.00;99.90
53410;DHT22;66590;50.734;4.246;2023-04-03T03:39:00;3.00;99.90
53410;DHT22;66590;50.734;4.246;2023-04-03T03:41:27;3.00;99.90
53410;DHT22;66590;50.734;4.246;2023-04-03T03:43:54;3.10;99.90
53410;DHT22;66590;50.734;4.246;2023-04-03T03:46:21;3.10;99.90
53410;DHT22;66590;50.734;4.246;2023-04-03T03:48:48;3.00;99.90
53410;DHT22;66590;50.734;4.246;2023-04-03T03:51:17;2.90;99.90
53410;DHT22;66590;50.734;4.246;2023-04-03T03:53:44;2.70;99.90
53410;DHT22;66590;50.734;4.246;2023-04-03T03:56:11;2.60;99.90
53410;DHT22;66590;50.734;4.246;2023-04-03T03:58:38;2.60;99.90
53410;DHT22;66590;50.734;4.246;2023-04-03T04:01:06;2.50;99.90
53410;DHT22;66590;50.734;4.246;2023-04-03T04:03:33;2.50;99.90
53410;DHT22;66590;50.734;4.246;2023-04-03T04:06:00;2.50;99.90
53410;DHT22;66590;50.734;4.246;2023-04-03T04:08:29;2.60;99.90
53410;DHT22;66590;50.734;4.246;2023-04-03T04:10:56;2.50;99.90
53410;DHT22;66590;50.734;4.246;2023-04-03T04:13:24;2.40;99.90
53410;DHT22;66590;50.734;4.246;2023-04-03T04:15:51;2.40;99.90
53410;DHT22;66590;50.734;4.246;2023-04-03T04:18:18;2.40;99.90
53410;DHT22;66590;50.734;4.246;2023-04-03T04:20:45;2.40;99.90
53410;DHT22;66590;50.734;4.246;2023-04-03T04:23:12;2.60;99.90
53410;DHT22;66590;50.734;4.246;2023-04-03T04:25:40;2.40;99.90
53410;DHT22;66590;50.734;4.246;2023-04-03T04:28:08;2.40;99.90
53410;DHT22;66590;50.734;4.246;2023-04-03T04:30:35;2.40;99.90
53410;DHT22;66590;50.734;4.246;2023-04-03T04:33:02;2.60;99.90
53410;DHT22;66590;50.734;4.246;2023-04-03T04:35:29;2.50;99.90
53410;DHT22;66590;50.734;4.246;2023-04-03T04:37:56;2.50;99.90
53410;DHT22;66590;50.734;4.246;2023-04-03T04:40:23;2.70;99.90
53410;DHT22;66590;50.734;4.246;2023-04-03T04:42:52;2.60;99.90
53410;DHT22;66590;50.734;4.246;2023-04-03T04:45:19;2.60;99.90
53410;DHT22;66590;50.734;4.246;2023-04-03T04:47:46;2.50;99.90
53410;DHT22;66590;50.734;4.246;2023-04-03T04:50:13;2.50;99.90
53410;DHT22;66590;50.734;4.246;2023-04-03T04:52:40;2.40;99.90
53410;DHT22;66590;50.734;4.246;2023-04-03T04:55:07;2.40;99.90
53410;DHT22;66590;50.734;4.246;2023-04-03T04:57:34;2.40;99.90
53410;DHT22;66590;50.734;4.246;2023-04-03T05:00:03;2.50;99.90
53410;DHT22;66590;50.734;4.246;2023-04-03T05:02:30;2.50;99.90
53410;DHT22;66590;50.734;4.246;2023-04-03T05:04:57;2.50;99.90
53410;DHT22;66590;50.734;4.246;2023-04-03T05:07:24;2.50;99.90
53410;DHT22;66590;50.734;4.246;2023-04-03T05:09:51;2.40;99.90
53410;DHT22;66590;50.734;4.246;2023-04-03T05:12:18;2.40;99.90
53410;DHT22;66590;50.734;4.246;2023-04-03T05:14:46;2.40;99.90
53410;DHT22;66590;50.734;4.246;2023-04-03T05:17:14;2.50;99.90
53410;DHT22;66590;50.734;4.246;2023-04-03T05:19:41;2.50;99.90
53410;DHT22;66590;50.734;4.246;2023-04-03T05:22:08;2.50;99.90
53410;DHT22;66590;50.734;4.246;2023-04-03T05:24:35;2.40;99.90
53410;DHT22;66590;50.734;4.246;2023-04-03T05:27:02;2.40;99.90
53410;DHT22;66590;50.734;4.246;2023-04-03T05:29:29;2.40;99.90
53410;DHT22;66590;50.734;4.246;2023-04-03T05:31:56;2.40;99.90
53410;DHT22;66590;50.734;4.246;2023-04-03T05:34:24;2.40;99.90
53410;DHT22;66590;50.734;4.246;2023-04-03T05:36:51;2.50;99.90
53410;DHT22;66590;50.734;4.246;2023-04-03T05:39:19;2.50;99.90
53410;DHT22;66590;50.734;4.246;2023-04-03T05:41:46;2.50;99.90
53410;DHT22;66590;50.734;4.246;2023-04-03T05:44:13;2.60;99.90
53410;DHT22;66590;50.734;4.246;2023-04-03T05:46:40;2.60;99.90
53410;DHT22;66590;50.734;4.246;2023-04-03T05:49:07;2.70;99.90
53410;DHT22;66590;50.734;4.246;2023-04-03T05:51:36;2.80;99.90
53410;DHT22;66590;50.734;4.246;2023-04-03T05:54:08;2.80;99.90
53410;DHT22;66590;50.734;4.246;2023-04-03T05:56:35;2.80;99.90
53410;DHT22;66590;50.734;4.246;2023-04-03T05:59:02;2.90;99.90
53410;DHT22;66590;50.734;4.246;2023-04-03T06:01:29;2.90;99.90
53410;DHT22;66590;50.734;4.246;2023-04-03T06:03:56;2.90;99.90
53410;DHT22;66590;50.734;4.246;2023-04-03T06:06:24;2.90;99.90
53410;DHT22;66590;50.734;4.246;2023-04-03T06:08:52;2.90;99.90
53410;DHT22;66590;50.734;4.246;2023-04-03T06:11:19;2.90;99.90
53410;DHT22;66590;50.734;4.246;2023-04-03T06:13:46;3.00;99.90
53410;DHT22;66590;50.734;4.246;2023-04-03T06:16:14;3.00;99.90
53410;DHT22;66590;50.734;4.246;2023-04-03T06:18:41;3.10;99.90
53410;DHT22;66590;50.734;4.246;2023-04-03T06:21:08;3.20;99.90
53410;DHT22;66590;50.734;4.246;2023-04-03T06:23:35;3.20;99.90
53410;DHT22;66590;50.734;4.246;2023-04-03T06:26:04;3.30;99.90
53410;DHT22;66590;50.734;4.246;2023-04-03T06:28:31;3.40;99.90
53410;DHT22;66590;50.734;4.246;2023-04-03T06:30:58;3.40;99.90
53410;DHT22;66590;50.734;4.246;2023-04-03T06:33:25;3.50;99.90
53410;DHT22;66590;50.734;4.246;2023-04-03T06:35:57;3.60;99.90
53410;DHT22;66590;50.734;4.246;2023-04-03T06:38:24;3.70;99.90
53410;DHT22;66590;50.734;4.246;2023-04-03T06:40:51;3.80;99.90
53410;DHT22;66590;50.734;4.246;2023-04-03T06:43:19;3.90;99.90
53410;DHT22;66590;50.734;4.246;2023-04-03T06:45:49;4.00;99.90
53410;DHT22;66590;50.734;4.246;2023-04-03T06:48:16;4.20;99.90
53410;DHT22;66590;50.734;4.246;2023-04-03T06:50:43;4.30;99.90
53410;DHT22;66590;50.734;4.246;2023-04-03T06:53:10;4.60;99.90
53410;DHT22;66590;50.734;4.246;2023-04-03T06:55:37;4.70;99.90
53410;DHT22;66590;50.734;4.246;2023-04-03T06:58:05;5.20;99.90
53410;DHT22;66590;50.734;4.246;2023-04-03T07:00:33;5.90;99.90
53410;DHT22;66590;50.734;4.246;2023-04-03T07:03:00;6.80;99.90
53410;DHT22;66590;50.734;4.246;2023-04-03T07:05:27;7.70;99.90
53410;DHT22;66590;50.734;4.246;2023-04-03T07:07:54;8.40;99.90
53410;DHT22;66590;50.734;4.246;2023-04-03T07:10:21;9.20;99.90
53410;DHT22;66590;50.734;4.246;2023-04-03T07:12:48;10.10;99.90
53410;DHT22;66590;50.734;4.246;2023-04-03T07:15:15;10.00;99.90
53410;DHT22;66590;50.734;4.246;2023-04-03T07:17:44;9.20;99.90
53410;DHT22;66590;50.734;4.246;2023-04-03T07:20:11;8.30;99.90
53410;DHT22;66590;50.734;4.246;2023-04-03T07:22:38;7.70;99.90
53410;DHT22;66590;50.734;4.246;2023-04-03T07:25:06;7.40;99.90
53410;DHT22;66590;50.734;4.246;2023-04-03T07:27:33;7.10;99.90
53410;DHT22;66590;50.734;4.246;2023-04-03T07:30:00;7.00;99.90
53410;DHT22;66590;50.734;4.246;2023-04-03T07:32:28;7.00;99.90
53410;DHT22;66590;50.734;4.246;2023-04-03T07:34:57;7.00;99.90
53410;DHT22;66590;50.734;4.246;2023-04-03T07:37:24;7.00;99.90
53410;DHT22;66590;50.734;4.246;2023-04-03T07:39:51;7.10;99.90
53410;DHT22;66590;50.734;4.246;2023-04-03T07:42:18;7.20;99.90
53410;DHT22;66590;50.734;4.246;2023-04-03T07:44:45;7.40;99.90
53410;DHT22;66590;50.734;4.246;2023-04-03T07:47:12;7.50;99.90
53410;DHT22;66590;50.734;4.246;2023-04-03T07:49:39;7.40;99.90
53410;DHT22;66590;50.734;4.246;2023-04-03T07:52:08;7.30;99.90
53410;DHT22;66590;50.734;4.246;2023-04-03T07:54:35;7.50;99.90
53410;DHT22;66590;50.734;4.246;2023-04-03T07:57:02;7.60;99.90
53410;DHT22;66590;50.734;4.246;2023-04-03T07:59:29;7.80;99.90
53410;DHT22;66590;50.734;4.246;2023-04-03T08:01:56;8.30;99.90
53410;DHT22;66590;50.734;4.246;2023-04-03T08:04:23;9.30;99.90
53410;DHT22;66590;50.734;4.246;2023-04-03T08:06:50;10.20;99.90
53410;DHT22;66590;50.734;4.246;2023-04-03T08:09:19;10.60;99.90
53410;DHT22;66590;50.734;4.246;2023-04-03T08:11:46;11.10;99.90
53410;DHT22;66590;50.734;4.246;2023-04-03T08:14:13;11.20;99.90
53410;DHT22;66590;50.734;4.246;2023-04-03T08:16:40;11.50;99.90
53410;DHT22;66590;50.734;4.246;2023-04-03T08:19:07;11.80;99.90
53410;DHT22;66590;50.734;4.246;2023-04-03T08:21:44;12.00;99.90
53410;DHT22;66590;50.734;4.246;2023-04-03T08:24:11;11.90;99.90
53410;DHT22;66590;50.734;4.246;2023-04-03T08:26:40;11.70;99.90
53410;DHT22;66590;50.734;4.246;2023-04-03T08:29:07;11.80;99.90
53410;DHT22;66590;50.734;4.246;2023-04-03T08:31:34;12.00;99.90
53410;DHT22;66590;50.734;4.246;2023-04-03T08:34:01;11.90;99.90
53410;DHT22;66590;50.734;4.246;2023-04-03T08:36:29;11.60;99.90
53410;DHT22;66590;50.734;4.246;2023-04-03T08:38:56;11.60;99.90
53410;DHT22;66590;50.734;4.246;2023-04-03T08:41:28;11.80;99.90
53410;DHT22;66590;50.734;4.246;2023-04-03T08:44:09;12.00;99.90
53410;DHT22;66590;50.734;4.246;2023-04-03T08:46:56;11.80;99.90
53410;DHT22;66590;50.734;4.246;2023-04-03T08:49:31;11.50;99.90
53410;DHT22;66590;50.734;4.246;2023-04-03T08:52:02;11.30;99.90
53410;DHT22;66590;50.734;4.246;2023-04-03T08:54:33;11.40;99.90
53410;DHT22;66590;50.734;4.246;2023-04-03T08:57:04;11.20;99.90
53410;DHT22;66590;50.734;4.246;2023-04-03T08:59:35;10.90;99.90
53410;DHT22;66590;50.734;4.246;2023-04-03T09:02:15;10.80;99.90
53410;DHT22;66590;50.734;4.246;2023-04-03T09:04:46;10.60;99.90
53410;DHT22;66590;50.734;4.246;2023-04-03T09:07:18;10.70;99.90
53410;DHT22;66590;50.734;4.246;2023-04-03T09:09:47;10.70;99.90
53410;DHT22;66590;50.734;4.246;2023-04-03T09:12:18;10.40;99.90
53410;DHT22;66590;50.734;4.246;2023-04-03T09:14:57;10.10;99.90
53410;DHT22;66590;50.734;4.246;2023-04-03T09:17:35;9.90;99.90
53410;DHT22;66590;50.734;4.246;2023-04-03T09:20:14;9.90;99.90
53410;DHT22;66590;50.734;4.246;2023-04-03T09:22:47;9.70;99.90
53410;DHT22;66590;50.734;4.246;2023-04-03T09:25:20;9.60;99.90
53410;DHT22;66590;50.734;4.246;2023-04-03T09:27:48;9.60;99.90
53410;DHT22;66590;50.734;4.246;2023-04-03T09:30:19;9.60;99.90
53410;DHT22;66590;50.734;4.246;2023-04-03T09:32:48;9.70;99.90
53410;DHT22;66590;50.734;4.246;2023-04-03T09:35:24;9.80;99.90
53410;DHT22;66590;50.734;4.246;2023-04-03T09:38:16;9.70;99.90
53410;DHT22;66590;50.734;4.246;2023-04-03T09:40:45;9.90;99.90
53410;DHT22;66590;50.734;4.246;2023-04-03T09:43:24;10.20;99.90
53410;DHT22;66590;50.734;4.246;2023-04-03T09:45:53;10.10;99.90
53410;DHT22;66590;50.734;4.246;2023-04-03T09:48:22;10.10;99.90
53410;DHT22;66590;50.734;4.246;2023-04-03T09:50:58;10.20;99.90
53410;DHT22;66590;50.734;4.246;2023-04-03T09:53:31;10.30;99.90
53410;DHT22;66590;50.734;4.246;2023-04-03T09:56:00;10.50;99.90
53410;DHT22;66590;50.734;4.246;2023-04-03T09:58:29;10.60;99.90
53410;DHT22;66590;50.734;4.246;2023-04-03T10:01:25;10.70;99.90
53410;DHT22;66590;50.734;4.246;2023-04-03T10:04:08;10.90;99.90
53410;DHT22;66590;50.734;4.246;2023-04-03T10:06:37;10.90;99.90
53410;DHT22;66590;50.734;4.246;2023-04-03T10:09:15;11.10;99.90
53410;DHT22;66590;50.734;4.246;2023-04-03T10:11:58;11.20;99.90
53410;DHT22;66590;50.734;4.246;2023-04-03T10:14:26;11.40;99.90
53410;DHT22;66590;50.734;4.246;2023-04-03T10:16:59;11.50;99.90
53410;DHT22;66590;50.734;4.246;2023-04-03T10:19:35;11.50;99.90
53410;DHT22;66590;50.734;4.246;2023-04-03T10:22:08;11.80;99.90
53410;DHT22;66590;50.734;4.246;2023-04-03T10:24:47;12.10;99.90
53410;DHT22;66590;50.734;4.246;2023-04-03T10:27:18;12.10;99.90
53410;DHT22;66590;50.734;4.246;2023-04-03T10:29:51;12.20;99.90
53410;DHT22;66590;50.734;4.246;2023-04-03T10:32:33;12.40;99.90
53410;DHT22;66590;50.734;4.246;2023-04-03T10:35:12;12.80;99.90
53410;DHT22;66590;50.734;4.246;2023-04-03T10:37:53;12.80;98.90
53410;DHT22;66590;50.734;4.246;2023-04-03T10:40:30;12.80;98.70
53410;DHT22;66590;50.734;4.246;2023-04-03T10:43:04;12.40;97.70
53410;DHT22;66590;50.734;4.246;2023-04-03T10:45:50;12.40;97.20
53410;DHT22;66590;50.734;4.246;2023-04-03T10:48:22;12.30;98.40
53410;DHT22;66590;50.734;4.246;2023-04-03T10:50:58;12.60;97.60
53410;DHT22;66590;50.734;4.246;2023-04-03T10:53:31;12.60;96.30
53410;DHT22;66590;50.734;4.246;2023-04-03T10:56:05;12.70;96.50
53410;DHT22;66590;50.734;4.246;2023-04-03T10:58:38;12.70;94.90
53410;DHT22;66590;50.734;4.246;2023-04-03T11:01:09;12.80;94.80
53410;DHT22;66590;50.734;4.246;2023-04-03T11:03:43;12.80;95.10
53410;DHT22;66590;50.734;4.246;2023-04-03T11:06:12;12.90;93.90
53410;DHT22;66590;50.734;4.246;2023-04-03T11:08:45;12.80;93.60
53410;DHT22;66590;50.734;4.246;2023-04-03T11:11:16;12.70;93.70
53410;DHT22;66590;50.734;4.246;2023-04-03T11:13:48;12.60;92.30
53410;DHT22;66590;50.734;4.246;2023-04-03T11:16:23;12.40;92.60
53410;DHT22;66590;50.734;4.246;2023-04-03T11:18:56;12.60;93.60
53410;DHT22;66590;50.734;4.246;2023-04-03T11:21:28;12.60;91.20
53410;DHT22;66590;50.734;4.246;2023-04-03T11:23:57;12.50;91.50
53410;DHT22;66590;50.734;4.246;2023-04-03T11:26:29;12.40;90.90
53410;DHT22;66590;50.734;4.246;2023-04-03T11:29:00;12.00;88.70
53410;DHT22;66590;50.734;4.246;2023-04-03T11:31:47;12.10;91.30
53410;DHT22;66590;50.734;4.246;2023-04-03T11:34:29;12.00;88.60
53410;DHT22;66590;50.734;4.246;2023-04-03T11:37:01;12.10;87.70
53410;DHT22;66590;50.734;4.246;2023-04-03T11:39:33;12.10;85.90
53410;DHT22;66590;50.734;4.246;2023-04-03T11:42:15;12.10;87.50
53410;DHT22;66590;50.734;4.246;2023-04-03T11:44:42;12.10;88.40
53410;DHT22;66590;50.734;4.246;2023-04-03T11:47:10;11.80;89.60
53410;DHT22;66590;50.734;4.246;2023-04-03T11:50:01;11.70;91.10
53410;DHT22;66590;50.734;4.246;2023-04-03T11:53:00;12.00;91.50
53410;DHT22;66590;50.734;4.246;2023-04-03T11:55:54;12.00;90.60
53410;DHT22;66590;50.734;4.246;2023-04-03T11:58:23;12.00;90.60
53410;DHT22;66590;50.734;4.246;2023-04-03T12:01:05;12.00;89.50
53410;DHT22;66590;50.734;4.246;2023-04-03T12:09:29;12.40;89.00
53410;DHT22;66590;50.734;4.246;2023-04-03T12:12:00;12.30;87.80
53410;DHT22;66590;50.734;4.246;2023-04-03T12:14:28;12.20;87.40
53410;DHT22;66590;50.734;4.246;2023-04-03T12:16:56;12.30;87.90
53410;DHT22;66590;50.734;4.246;2023-04-03T12:19:31;12.40;85.40
53410;DHT22;66590;50.734;4.246;2023-04-03T12:22:14;12.50;82.20
53410;DHT22;66590;50.734;4.246;2023-04-03T12:24:43;12.30;82.60
53410;DHT22;66590;50.734;4.246;2023-04-03T12:27:44;12.40;83.90
53410;DHT22;66590;50.734;4.246;2023-04-03T12:30:18;12.90;82.70
53410;DHT22;66590;50.734;4.246;2023-04-03T12:32:57;12.90;82.60
53410;DHT22;66590;50.734;4.246;2023-04-03T12:35:44;12.80;82.50
53410;DHT22;66590;50.734;4.246;2023-04-03T12:38:16;12.80;80.10
53410;DHT22;66590;50.734;4.246;2023-04-03T12:40:50;12.60;81.70
53410;DHT22;66590;50.734;4.246;2023-04-03T12:43:28;12.60;81.10
53410;DHT22;66590;50.734;4.246;2023-04-03T12:46:03;12.60;82.00
53410;DHT22;66590;50.734;4.246;2023-04-03T12:48:32;12.60;83.20
53410;DHT22;66590;50.734;4.246;2023-04-03T12:51:01;12.40;84.40
53410;DHT22;66590;50.734;4.246;2023-04-03T12:53:32;12.10;83.90
53410;DHT22;66590;50.734;4.246;2023-04-03T12:56:23;12.10;85.40
53410;DHT22;66590;50.734;4.246;2023-04-03T12:58:52;12.40;80.80
53410;DHT22;66590;50.734;4.246;2023-04-03T13:01:21;12.40;80.10
53410;DHT22;66590;50.734;4.246;2023-04-03T13:03:51;12.40;79.10
53410;DHT22;66590;50.734;4.246;2023-04-03T13:06:21;12.40;79.40
53410;DHT22;66590;50.734;4.246;2023-04-03T13:08:50;12.30;80.70
53410;DHT22;66590;50.734;4.246;2023-04-03T13:11:19;12.10;81.20
53410;DHT22;66590;50.734;4.246;2023-04-03T13:13:57;12.20;81.90
53410;DHT22;66590;50.734;4.246;2023-04-03T13:16:24;12.30;80.00
53410;DHT22;66590;50.734;4.246;2023-04-03T13:18:52;12.40;79.10
53410;DHT22;66590;50.734;4.246;2023-04-03T13:21:21;12.20;74.90
53410;DHT22;66590;50.734;4.246;2023-04-03T13:23:51;12.20;76.20
53410;DHT22;66590;50.734;4.246;2023-04-03T13:26:33;12.40;74.20
53410;DHT22;66590;50.734;4.246;2023-04-03T13:29:06;12.50;72.60
53410;DHT22;66590;50.734;4.246;2023-04-03T13:31:43;12.60;74.20
53410;DHT22;66590;50.734;4.246;2023-04-03T13:34:12;12.60;72.80
53410;DHT22;66590;50.734;4.246;2023-04-03T13:36:43;12.50;72.10
53410;DHT22;66590;50.734;4.246;2023-04-03T13:39:23;12.40;70.80
53410;DHT22;66590;50.734;4.246;2023-04-03T13:41:51;12.80;70.20
53410;DHT22;66590;50.734;4.246;2023-04-03T13:44:37;13.10;69.30
53410;DHT22;66590;50.734;4.246;2023-04-03T13:47:17;13.30;69.10
53410;DHT22;66590;50.734;4.246;2023-04-03T13:49:45;13.20;68.90
53410;DHT22;66590;50.734;4.246;2023-04-03T13:52:24;13.20;65.60
53410;DHT22;66590;50.734;4.246;2023-04-03T13:54:53;13.20;68.50
53410;DHT22;66590;50.734;4.246;2023-04-03T13:57:22;13.30;65.20
53410;DHT22;66590;50.734;4.246;2023-04-03T13:59:51;12.70;66.40
53410;DHT22;66590;50.734;4.246;2023-04-03T14:02:21;12.30;68.20
53410;DHT22;66590;50.734;4.246;2023-04-03T14:04:53;12.50;68.70
53410;DHT22;66590;50.734;4.246;2023-04-03T14:07:20;12.50;67.90
53410;DHT22;66590;50.734;4.246;2023-04-03T14:09:48;12.10;72.30
53410;DHT22;66590;50.734;4.246;2023-04-03T14:12:17;12.20;66.70
53410;DHT22;66590;50.734;4.246;2023-04-03T14:14:59;12.20;65.40
53410;DHT22;66590;50.734;4.246;2023-04-03T14:17:27;12.20;63.90
53410;DHT22;66590;50.734;4.246;2023-04-03T14:19:55;12.20;65.00
53410;DHT22;66590;50.734;4.246;2023-04-03T14:22:24;12.30;67.60
53410;DHT22;66590;50.734;4.246;2023-04-03T14:24:51;12.40;67.00
53410;DHT22;66590;50.734;4.246;2023-04-03T14:27:21;12.60;68.60
53410;DHT22;66590;50.734;4.246;2023-04-03T14:29:50;12.30;66.70
53410;DHT22;66590;50.734;4.246;2023-04-03T14:32:20;12.10;65.60
53410;DHT22;66590;50.734;4.246;2023-04-03T14:34:49;11.90;67.60
53410;DHT22;66590;50.734;4.246;2023-04-03T14:37:18;11.80;65.40
53410;DHT22;66590;50.734;4.246;2023-04-03T14:39:46;12.00;67.90
53410;DHT22;66590;50.734;4.246;2023-04-03T14:42:15;11.90;67.70
53410;DHT22;66590;50.734;4.246;2023-04-03T14:44:42;11.90;72.10
53410;DHT22;66590;50.734;4.246;2023-04-03T14:47:11;12.00;69.00
53410;DHT22;66590;50.734;4.246;2023-04-03T14:49:57;12.00;71.90
53410;DHT22;66590;50.734;4.246;2023-04-03T14:52:27;12.00;72.40
53410;DHT22;66590;50.734;4.246;2023-04-03T14:54:55;12.10;69.30
53410;DHT22;66590;50.734;4.246;2023-04-03T14:57:24;12.20;71.10
53410;DHT22;66590;50.734;4.246;2023-04-03T14:59:51;12.10;65.80
53410;DHT22;66590;50.734;4.246;2023-04-03T15:02:27;12.00;67.40
53410;DHT22;66590;50.734;4.246;2023-04-03T15:04:57;11.80;69.00
53410;DHT22;66590;50.734;4.246;2023-04-03T15:07:26;11.90;68.50
53410;DHT22;66590;50.734;4.246;2023-04-03T15:09:54;11.90;66.20
53410;DHT22;66590;50.734;4.246;2023-04-03T15:12:21;11.70;66.60
53410;DHT22;66590;50.734;4.246;2023-04-03T15:14:48;11.60;66.00
53410;DHT22;66590;50.734;4.246;2023-04-03T15:17:26;11.60;67.40
53410;DHT22;66590;50.734;4.246;2023-04-03T15:19:53;11.60;67.30
53410;DHT22;66590;50.734;4.246;2023-04-03T15:22:22;11.60;65.70
53410;DHT22;66590;50.734;4.246;2023-04-03T15:24:49;11.70;65.70
53410;DHT22;66590;50.734;4.246;2023-04-03T15:27:16;11.70;65.20
53410;DHT22;66590;50.734;4.246;2023-04-03T15:29:44;11.80;64.20
53410;DHT22;66590;50.734;4.246;2023-04-03T15:32:12;11.70;65.80
53410;DHT22;66590;50.734;4.246;2023-04-03T15:34:41;11.60;68.80
53410;DHT22;66590;50.734;4.246;2023-04-03T15:37:08;11.70;67.50
53410;DHT22;66590;50.734;4.246;2023-04-03T15:39:36;11.70;66.70
53410;DHT22;66590;50.734;4.246;2023-04-03T15:42:04;11.50;66.60
53410;DHT22;66590;50.734;4.246;2023-04-03T15:44:31;11.60;67.70
53410;DHT22;66590;50.734;4.246;2023-04-03T15:46:58;11.70;66.80
53410;DHT22;66590;50.734;4.246;2023-04-03T15:49:26;11.60;65.20
53410;DHT22;66590;50.734;4.246;2023-04-03T15:51:53;11.50;63.70
53410;DHT22;66590;50.734;4.246;2023-04-03T15:54:20;11.60;65.90
53410;DHT22;66590;50.734;4.246;2023-04-03T15:56:49;11.60;66.90
53410;DHT22;66590;50.734;4.246;2023-04-03T15:59:16;11.60;68.20
53410;DHT22;66590;50.734;4.246;2023-04-03T16:01:43;11.50;66.50
53410;DHT22;66590;50.734;4.246;2023-04-03T16:04:10;11.60;69.30
53410;DHT22;66590;50.734;4.246;2023-04-03T16:06:37;11.70;69.40